createdAt,value
2018-01-29T00:00:30.371Z,0.50
2018-01-29T00:02:58.396Z,0.60
2018-01-29T00:05:26.508Z,0.57
2018-01-29T00:07:54.917Z,0.60
2018-01-29T00:10:22.960Z,0.40
2018-01-29T00:13:01.601Z,0.53
2018-01-29T00:15:29.667Z,0.50
2018-01-29T00:17:57.712Z,0.50
2018-01-29T00:20:25.773Z,0.50
2018-01-29T00:22:53.812Z,0.60
2018-01-29T00:25:21.892Z,0.60
2018-01-29T00:27:50.009Z,0.60
2018-01-29T00:30:18.093Z,0.60
2018-01-29T00:32:46.116Z,0.50
2018-01-29T00:35:14.187Z,0.60
2018-01-29T00:37:42.235Z,0.40
2018-01-29T00:40:10.289Z,0.77
2018-01-29T00:42:38.316Z,0.60
2018-01-29T00:45:06.389Z,0.53
2018-01-29T00:47:34.402Z,0.50
2018-01-29T00:50:02.470Z,0.50
2018-01-29T00:52:30.516Z,0.70
2018-01-29T00:54:58.568Z,0.60
2018-01-29T00:57:26.617Z,0.50
2018-01-29T00:59:54.689Z,0.50
2018-01-29T01:02:23.715Z,0.50
2018-01-29T01:04:51.792Z,0.30
2018-01-29T01:07:19.820Z,0.67
2018-01-29T01:09:47.892Z,0.57
2018-01-29T01:12:15.918Z,0.50
2018-01-29T01:14:59.302Z,0.47
2018-01-29T01:17:27.332Z,0.50
2018-01-29T01:19:55.380Z,0.50
2018-01-29T01:22:23.424Z,0.60
2018-01-29T01:24:51.456Z,0.50
2018-01-29T01:27:19.548Z,0.40
2018-01-29T01:29:47.588Z,0.50
2018-01-29T01:32:15.624Z,0.60
2018-01-29T01:34:43.651Z,0.50
2018-01-29T01:37:11.703Z,0.60
2018-01-29T01:39:39.768Z,0.53
2018-01-29T01:42:07.875Z,0.67
2018-01-29T01:44:36.269Z,0.70
2018-01-29T01:47:04.789Z,0.50
2018-01-29T01:49:32.869Z,0.50
2018-01-29T01:52:00.908Z,0.60
2018-01-29T01:54:28.945Z,0.50
2018-01-29T01:56:57.001Z,0.63
2018-01-29T01:59:25.028Z,0.40
2018-01-29T02:01:53.100Z,0.50
2018-01-29T02:04:21.144Z,0.30
2018-01-29T02:06:49.208Z,0.50
2018-01-29T02:09:17.224Z,0.43
2018-01-29T02:11:45.298Z,0.60
2018-01-29T02:14:23.588Z,0.50
2018-01-29T02:16:51.982Z,0.50
2018-01-29T02:19:20.150Z,0.50
2018-01-29T02:21:48.228Z,0.70
2018-01-29T02:24:16.328Z,0.60
2018-01-29T02:26:44.416Z,0.60
2018-01-29T02:29:12.451Z,0.40
2018-01-29T02:31:40.529Z,0.40
2018-01-29T02:34:08.553Z,0.57
2018-01-29T02:36:36.640Z,0.53
2018-01-29T02:39:05.084Z,0.50
2018-01-29T02:41:33.192Z,0.60
2018-01-29T02:44:01.237Z,0.57
2018-01-29T02:46:29.348Z,0.50
2018-01-29T02:48:57.387Z,0.50
2018-01-29T02:51:25.510Z,0.60
2018-01-29T02:53:53.613Z,0.40
2018-01-29T02:56:21.698Z,0.60
2018-01-29T02:58:49.753Z,0.50
2018-01-29T03:01:17.827Z,0.50
2018-01-29T03:03:45.909Z,0.50
2018-01-29T03:06:13.970Z,0.70
2018-01-29T03:08:41.999Z,0.70
2018-01-29T03:11:10.113Z,0.50
2018-01-29T03:13:48.440Z,0.70
2018-01-29T03:16:16.529Z,0.50
2018-01-29T03:18:44.590Z,0.57
2018-01-29T03:21:12.638Z,0.60
2018-01-29T03:23:40.674Z,0.50
2018-01-29T03:26:08.765Z,0.63
2018-01-29T03:28:38.821Z,0.60
2018-01-29T03:31:06.874Z,0.50
2018-01-29T03:33:34.894Z,0.60
2018-01-29T03:36:02.987Z,0.60
2018-01-29T03:38:31.039Z,0.50
2018-01-29T03:40:59.109Z,0.60
2018-01-29T03:43:27.188Z,0.60
2018-01-29T03:45:55.223Z,0.40
2018-01-29T03:48:23.258Z,0.57
2018-01-29T03:50:51.352Z,0.50
2018-01-29T03:53:19.441Z,0.60
2018-01-29T03:55:47.491Z,0.50
2018-01-29T03:58:15.566Z,0.50
2018-01-29T04:00:43.626Z,0.60
2018-01-29T04:03:11.694Z,0.60
2018-01-29T04:05:39.778Z,0.50
2018-01-29T04:08:07.862Z,0.70
2018-01-29T04:10:35.938Z,0.63
2018-01-29T04:13:13.701Z,0.50
2018-01-29T04:15:41.767Z,0.60
2018-01-29T04:18:09.869Z,0.50
2018-01-29T04:20:37.913Z,0.50
2018-01-29T04:23:06.169Z,0.70
2018-01-29T04:25:34.270Z,0.70
2018-01-29T04:28:02.409Z,0.70
2018-01-29T04:30:30.534Z,0.60
2018-01-29T04:32:58.667Z,0.60
2018-01-29T04:35:26.728Z,0.60
2018-01-29T04:37:54.805Z,0.70
2018-01-29T04:40:22.873Z,0.70
2018-01-29T04:42:50.993Z,0.70
2018-01-29T04:45:19.054Z,0.50
2018-01-29T04:47:47.148Z,0.50
2018-01-29T04:50:15.238Z,0.50
2018-01-29T04:52:43.346Z,0.60
2018-01-29T04:55:16.373Z,0.80
2018-01-29T04:57:46.513Z,0.87
2018-01-29T05:00:14.557Z,0.93
2018-01-29T05:02:42.650Z,0.60
2018-01-29T05:05:10.750Z,0.60
2018-01-29T05:07:38.806Z,0.53
2018-01-29T05:10:06.823Z,0.60
2018-01-29T05:12:47.371Z,0.50
2018-01-29T05:15:15.441Z,0.60
2018-01-29T05:17:43.483Z,0.40
2018-01-29T05:20:11.549Z,0.40
2018-01-29T05:22:39.611Z,0.50
2018-01-29T05:25:07.686Z,0.50
2018-01-29T05:27:35.817Z,0.60
2018-01-29T05:30:03.862Z,0.60
2018-01-29T05:32:31.912Z,0.57
2018-01-29T05:34:59.967Z,0.50
2018-01-29T05:37:31.879Z,0.60
2018-01-29T05:39:59.962Z,0.50
2018-01-29T05:42:28.038Z,0.37
2018-01-29T05:44:56.121Z,0.40
2018-01-29T05:47:24.217Z,0.53
2018-01-29T05:49:52.262Z,0.40
2018-01-29T05:52:20.350Z,0.50
2018-01-29T05:54:48.429Z,0.60
2018-01-29T05:57:16.541Z,0.50
2018-01-29T05:59:44.593Z,0.50
2018-01-29T06:02:12.697Z,0.40
2018-01-29T06:04:40.774Z,0.40
2018-01-29T06:07:08.830Z,0.40
2018-01-29T06:09:36.855Z,0.50
2018-01-29T06:12:04.919Z,0.40
2018-01-29T06:14:45.466Z,0.40
2018-01-29T06:17:13.502Z,0.30
2018-01-29T06:19:41.573Z,0.47
2018-01-29T06:22:09.630Z,0.57
2018-01-29T06:24:37.700Z,0.50
2018-01-29T06:27:05.781Z,0.63
2018-01-29T06:29:33.814Z,0.50
2018-01-29T06:32:01.874Z,0.47
2018-01-29T06:34:30.218Z,0.50
2018-01-29T06:36:58.250Z,0.70
2018-01-29T06:39:26.286Z,0.40
2018-01-29T06:41:54.350Z,0.60
2018-01-29T06:44:22.437Z,0.50
2018-01-29T06:46:50.546Z,0.47
2018-01-29T06:49:18.729Z,0.50
2018-01-29T06:51:46.801Z,0.30
2018-01-29T06:54:14.863Z,0.47
2018-01-29T06:56:42.886Z,0.50
2018-01-29T06:59:10.934Z,0.30
2018-01-29T07:01:38.993Z,0.47
2018-01-29T07:04:07.101Z,0.60
2018-01-29T07:06:35.154Z,0.40
2018-01-29T07:09:03.328Z,0.40
2018-01-29T07:11:31.537Z,0.40
2018-01-29T07:14:10.474Z,0.40
2018-01-29T07:16:38.510Z,0.30
2018-01-29T07:19:06.868Z,0.60
2018-01-29T07:21:35.026Z,0.60
2018-01-29T07:24:03.074Z,0.50
2018-01-29T07:26:31.126Z,0.30
2018-01-29T07:28:59.233Z,0.50
2018-01-29T07:31:27.291Z,0.50
2018-01-29T07:33:55.336Z,0.30
2018-01-29T07:36:23.379Z,0.43
2018-01-29T07:38:51.497Z,0.30
2018-01-29T07:41:19.581Z,0.40
2018-01-29T07:43:47.660Z,0.40
2018-01-29T07:46:15.691Z,0.40
2018-01-29T07:48:43.726Z,0.37
2018-01-29T07:51:11.795Z,0.50
2018-01-29T07:53:39.882Z,0.33
2018-01-29T07:56:07.922Z,0.30
2018-01-29T07:58:35.974Z,0.33
2018-01-29T08:01:04.046Z,0.40
2018-01-29T08:03:32.095Z,0.43
2018-01-29T08:06:00.181Z,0.40
2018-01-29T08:08:28.253Z,0.40
2018-01-29T08:10:56.269Z,0.40
2018-01-29T08:13:35.777Z,0.30
2018-01-29T08:16:03.870Z,0.30
2018-01-29T08:18:31.939Z,0.40
2018-01-29T08:20:59.994Z,0.30
2018-01-29T08:23:28.101Z,0.40
2018-01-29T08:25:56.212Z,0.40
2018-01-29T08:28:24.308Z,0.50
2018-01-29T08:30:52.397Z,0.40
2018-01-29T08:33:20.485Z,0.30
2018-01-29T08:35:48.551Z,0.40
2018-01-29T08:38:16.643Z,0.40
2018-01-29T08:40:44.714Z,0.30
2018-01-29T08:43:12.762Z,0.40
2018-01-29T08:45:40.794Z,0.30
2018-01-29T08:48:08.837Z,0.30
2018-01-29T08:50:36.870Z,0.30
2018-01-29T08:53:04.957Z,0.40
2018-01-29T08:55:32.979Z,0.40
2018-01-29T08:58:01.025Z,0.30
2018-01-29T09:00:29.108Z,0.30
2018-01-29T09:02:57.176Z,0.40
2018-01-29T09:05:25.285Z,0.30
2018-01-29T09:07:53.302Z,0.33
2018-01-29T09:10:21.369Z,0.30
2018-01-29T09:13:00.410Z,0.30
2018-01-29T09:15:28.497Z,0.40
2018-01-29T09:17:56.565Z,0.33
2018-01-29T09:20:24.677Z,0.30
2018-01-29T09:22:52.741Z,0.30
2018-01-29T09:25:20.829Z,0.30
2018-01-29T09:27:48.881Z,0.30
2018-01-29T09:30:16.938Z,0.30
2018-01-29T09:32:44.972Z,0.47
2018-01-29T09:35:13.696Z,0.40
2018-01-29T09:37:41.793Z,0.30
2018-01-29T09:40:09.875Z,0.40
2018-01-29T09:42:37.917Z,0.30
2018-01-29T09:45:06.003Z,0.30
2018-01-29T09:47:34.044Z,0.33
2018-01-29T09:50:02.169Z,0.30
2018-01-29T09:52:30.186Z,0.40
2018-01-29T09:54:58.267Z,0.30
2018-01-29T09:57:26.293Z,0.50
2018-01-29T09:59:54.428Z,0.30
2018-01-29T10:02:22.521Z,0.30
2018-01-29T10:04:50.593Z,0.30
2018-01-29T10:07:18.686Z,0.20
2018-01-29T10:09:46.715Z,0.40
2018-01-29T10:12:14.798Z,0.23
2018-01-29T10:14:57.617Z,0.30
2018-01-29T10:17:25.702Z,0.40
2018-01-29T10:19:53.788Z,0.40
2018-01-29T10:22:21.842Z,0.30
2018-01-29T10:24:49.970Z,0.30
2018-01-29T10:27:18.069Z,0.30
2018-01-29T10:29:46.170Z,0.30
2018-01-29T10:32:14.206Z,0.40
2018-01-29T10:34:42.258Z,0.30
2018-01-29T10:37:10.287Z,0.23
2018-01-29T10:39:38.357Z,0.40
2018-01-29T10:42:06.429Z,0.40
2018-01-29T10:44:34.497Z,0.30
2018-01-29T10:47:02.637Z,0.30
2018-01-29T10:49:30.686Z,0.30
2018-01-29T10:51:58.773Z,0.23
2018-01-29T10:54:26.830Z,0.30
2018-01-29T10:56:54.906Z,0.30
2018-01-29T10:59:22.968Z,0.30
2018-01-29T11:01:57.079Z,0.30
2018-01-29T11:04:25.101Z,0.40
2018-01-29T11:06:53.165Z,0.30
2018-01-29T11:09:21.272Z,0.30
2018-01-29T11:11:49.358Z,0.30
2018-01-29T11:14:31.467Z,0.30
2018-01-29T11:16:59.548Z,0.30
2018-01-29T11:19:27.656Z,0.30
2018-01-29T11:21:55.710Z,0.30
2018-01-29T11:24:23.884Z,0.30
2018-01-29T11:26:51.971Z,0.30
2018-01-29T11:29:21.034Z,0.40
2018-01-29T11:31:49.108Z,0.20
2018-01-29T11:34:17.253Z,0.20
2018-01-29T11:36:45.557Z,0.30
2018-01-29T11:39:13.649Z,0.30
2018-01-29T11:41:41.711Z,0.30
2018-01-29T11:44:14.414Z,0.27
2018-01-29T11:46:42.508Z,0.30
2018-01-29T11:49:10.588Z,0.30
2018-01-29T11:51:38.702Z,0.30
2018-01-29T11:54:06.805Z,0.30
2018-01-29T11:56:34.853Z,0.33
2018-01-29T11:59:02.977Z,0.20
2018-01-29T12:01:31.068Z,0.20
2018-01-29T12:03:59.157Z,0.27
2018-01-29T12:06:27.198Z,0.30
2018-01-29T12:08:55.226Z,0.30
2018-01-29T12:11:23.246Z,0.40
2018-01-29T12:14:05.301Z,0.30
2018-01-29T12:16:33.323Z,0.20
2018-01-29T12:19:01.370Z,0.27
2018-01-29T12:21:29.458Z,0.30
2018-01-29T12:23:57.950Z,0.30
2018-01-29T12:26:26.055Z,0.30
2018-01-29T12:28:54.135Z,0.30
2018-01-29T12:31:22.204Z,0.20
2018-01-29T12:33:50.302Z,0.40
2018-01-29T12:36:18.339Z,0.20
2018-01-29T12:38:46.393Z,0.30
2018-01-29T12:41:14.418Z,0.10
2018-01-29T12:43:42.792Z,0.30
2018-01-29T12:46:10.801Z,0.30
2018-01-29T12:48:38.866Z,0.40
2018-01-29T12:51:06.886Z,0.20
2018-01-29T12:53:34.948Z,0.20
2018-01-29T12:56:02.964Z,0.40
2018-01-29T12:58:31.045Z,0.20
2018-01-29T13:00:59.137Z,0.30
2018-01-29T13:03:27.221Z,0.20
2018-01-29T13:05:55.246Z,0.30
2018-01-29T13:08:23.333Z,0.30
2018-01-29T13:10:51.374Z,0.30
2018-01-29T13:13:30.677Z,0.20
2018-01-29T13:15:58.749Z,0.30
2018-01-29T13:18:26.829Z,0.20
2018-01-29T13:20:54.889Z,0.30
2018-01-29T13:23:22.962Z,0.20
2018-01-29T13:25:51.077Z,0.30
2018-01-29T13:28:19.139Z,0.30
2018-01-29T13:30:47.154Z,0.40
2018-01-29T13:33:15.229Z,0.20
2018-01-29T13:35:43.267Z,0.20
2018-01-29T13:38:11.366Z,0.30
2018-01-29T13:40:39.445Z,0.10
2018-01-29T13:43:07.748Z,0.20
2018-01-29T13:45:36.244Z,0.40
2018-01-29T13:48:04.368Z,0.20
2018-01-29T13:50:32.453Z,0.30
2018-01-29T13:53:00.558Z,0.37
2018-01-29T13:55:28.601Z,0.20
2018-01-29T13:57:56.646Z,0.30
2018-01-29T14:00:24.708Z,0.30
2018-01-29T14:02:52.825Z,0.20
2018-01-29T14:05:20.837Z,0.30
2018-01-29T14:07:48.921Z,0.20
2018-01-29T14:10:16.985Z,0.30
2018-01-29T14:15:23.078Z,0.20
2018-01-29T14:17:51.188Z,0.20
2018-01-29T14:20:19.277Z,0.20
2018-01-29T14:22:47.377Z,0.20
2018-01-29T14:25:15.457Z,0.27
2018-01-29T14:27:43.510Z,0.40
2018-01-29T14:30:11.626Z,0.40
2018-01-29T14:32:39.769Z,0.23
2018-01-29T14:35:07.912Z,0.20
2018-01-29T14:37:36.009Z,0.23
2018-01-29T14:40:04.129Z,0.20
2018-01-29T14:42:32.182Z,0.20
2018-01-29T14:45:00.257Z,0.30
2018-01-29T14:47:28.319Z,0.20
2018-01-29T14:49:56.349Z,0.30
2018-01-29T14:52:24.411Z,0.30
2018-01-29T14:54:52.443Z,0.20
2018-01-29T14:57:21.586Z,0.20
2018-01-29T14:59:49.673Z,0.30
2018-01-29T15:02:17.758Z,0.20
2018-01-29T15:04:45.799Z,0.20
2018-01-29T15:07:13.936Z,0.23
2018-01-29T15:09:41.970Z,0.20
2018-01-29T15:12:10.010Z,0.30
2018-01-29T15:14:54.265Z,0.30
2018-01-29T15:17:22.369Z,0.30
2018-01-29T15:19:50.438Z,0.20
2018-01-29T15:22:18.542Z,0.37
2018-01-29T15:24:46.614Z,0.30
2018-01-29T15:27:14.690Z,0.20
2018-01-29T15:29:42.719Z,0.30
2018-01-29T15:32:10.762Z,0.30
2018-01-29T15:34:38.788Z,0.20
2018-01-29T15:37:06.866Z,0.30
2018-01-29T15:39:34.937Z,0.20
2018-01-29T15:42:03.009Z,0.20
2018-01-29T15:44:31.050Z,0.30
2018-01-29T15:46:59.074Z,0.20
2018-01-29T15:49:27.168Z,0.30
2018-01-29T15:51:55.197Z,0.20
2018-01-29T15:54:23.643Z,0.20
2018-01-29T15:56:52.042Z,0.53
2018-01-29T15:59:20.481Z,0.20
2018-01-29T16:01:48.522Z,0.40
2018-01-29T16:04:16.570Z,0.30
2018-01-29T16:06:44.635Z,0.20
2018-01-29T16:09:12.738Z,0.20
2018-01-29T16:11:40.777Z,0.50
2018-01-29T16:14:18.542Z,0.30
2018-01-29T16:16:47.018Z,0.20
2018-01-29T16:19:15.213Z,0.30
2018-01-29T16:21:44.269Z,0.30
2018-01-29T16:24:12.334Z,0.30
2018-01-29T16:26:44.250Z,0.30
2018-01-29T16:29:12.305Z,0.30
2018-01-29T16:31:40.373Z,0.30
2018-01-29T16:34:08.473Z,0.40
2018-01-29T16:36:36.502Z,0.40
2018-01-29T16:39:04.558Z,0.53
2018-01-29T16:41:32.641Z,0.40
2018-01-29T16:44:00.745Z,0.50
2018-01-29T16:46:28.770Z,0.37
2018-01-29T16:48:56.814Z,0.30
2018-01-29T16:51:40.803Z,0.40
2018-01-29T16:54:08.885Z,0.30
2018-01-29T16:56:36.974Z,0.40
2018-01-29T16:59:05.002Z,0.30
2018-01-29T17:01:33.077Z,0.50
2018-01-29T17:04:02.194Z,0.40
2018-01-29T17:06:30.281Z,0.30
2018-01-29T17:08:58.378Z,0.50
2018-01-29T17:11:26.454Z,0.50
2018-01-29T17:14:09.843Z,0.40
2018-01-29T17:16:37.871Z,0.50
2018-01-29T17:19:05.914Z,0.40
2018-01-29T17:21:34.017Z,0.40
2018-01-29T17:24:02.226Z,0.40
2018-01-29T17:26:30.577Z,0.40
2018-01-29T17:28:58.635Z,0.50
2018-01-29T17:31:26.708Z,0.50
2018-01-29T17:33:54.742Z,0.50
2018-01-29T17:36:22.757Z,0.40
2018-01-29T17:38:50.848Z,0.40
2018-01-29T17:41:18.886Z,0.50
2018-01-29T17:43:46.941Z,0.60
2018-01-29T17:46:15.242Z,0.40
2018-01-29T17:48:43.284Z,0.33
2018-01-29T17:51:11.915Z,0.53
2018-01-29T17:53:40.660Z,0.40
2018-01-29T17:56:08.981Z,0.50
2018-01-29T17:58:37.040Z,0.40
2018-01-29T18:01:06.130Z,0.47
2018-01-29T18:03:34.179Z,0.40
2018-01-29T18:06:02.202Z,0.40
2018-01-29T18:08:30.243Z,0.40
2018-01-29T18:10:58.329Z,0.30
2018-01-29T18:13:43.355Z,0.53
2018-01-29T18:16:11.378Z,0.60
2018-01-29T18:18:40.024Z,0.30
2018-01-29T18:21:08.061Z,0.60
2018-01-29T18:23:36.141Z,0.30
2018-01-29T18:26:04.239Z,0.50
2018-01-29T18:28:32.283Z,0.40
2018-01-29T18:31:00.312Z,0.33
2018-01-29T18:33:28.429Z,0.60
2018-01-29T18:35:56.501Z,0.47
2018-01-29T18:38:24.593Z,0.30
2018-01-29T18:40:52.639Z,0.40
2018-01-29T18:43:20.688Z,0.50
2018-01-29T18:45:48.758Z,0.60
2018-01-29T18:48:16.826Z,0.43
2018-01-29T18:50:44.858Z,0.40
2018-01-29T18:53:13.252Z,0.53
2018-01-29T18:55:41.322Z,0.60
2018-01-29T18:58:09.410Z,0.40
2018-01-29T19:00:37.490Z,0.47
2018-01-29T19:03:05.538Z,0.40
2018-01-29T19:05:33.614Z,0.60
2018-01-29T19:08:01.684Z,0.40
2018-01-29T19:10:29.735Z,0.50
2018-01-29T19:15:31.556Z,0.40
2018-01-29T19:17:59.654Z,0.40
2018-01-29T19:20:27.682Z,0.60
2018-01-29T19:22:55.726Z,0.50
2018-01-29T19:25:24.806Z,0.50
2018-01-29T19:27:52.879Z,0.60
2018-01-29T19:30:29.526Z,0.50
2018-01-29T19:32:57.621Z,0.40
2018-01-29T19:35:25.692Z,0.40
2018-01-29T19:37:53.905Z,0.40
2018-01-29T19:40:21.948Z,0.47
2018-01-29T19:42:50.023Z,0.33
2018-01-29T19:45:18.353Z,0.40
2018-01-29T19:47:48.440Z,0.40
2018-01-29T19:50:16.521Z,0.60
2018-01-29T19:52:44.654Z,0.50
2018-01-29T19:55:12.883Z,0.50
2018-01-29T19:57:40.942Z,0.30
2018-01-29T20:00:09.018Z,0.30
2018-01-29T20:02:37.079Z,0.40
2018-01-29T20:05:05.769Z,0.40
2018-01-29T20:07:33.866Z,0.30
2018-01-29T20:10:01.895Z,0.50
2018-01-29T20:12:30.112Z,0.40
2018-01-29T20:15:14.469Z,0.50
2018-01-29T20:17:42.561Z,0.60
2018-01-29T20:20:11.663Z,0.33
2018-01-29T20:22:46.587Z,0.40
2018-01-29T20:25:16.262Z,0.60
2018-01-29T20:27:44.379Z,0.67
2018-01-29T20:30:12.498Z,0.40
2018-01-29T20:32:40.605Z,0.60
2018-01-29T20:35:14.252Z,0.47
2018-01-29T20:37:49.482Z,0.60
2018-01-29T20:40:17.608Z,0.60
2018-01-29T20:42:46.323Z,0.43
2018-01-29T20:45:14.589Z,0.60
2018-01-29T20:47:42.721Z,0.50
2018-01-29T20:50:10.788Z,0.40
2018-01-29T20:52:38.885Z,0.40
2018-01-29T20:55:06.990Z,0.50
2018-01-29T20:57:35.046Z,0.33
2018-01-29T21:00:03.107Z,0.40
2018-01-29T21:02:31.162Z,0.37
2018-01-29T21:04:59.219Z,0.60
2018-01-29T21:07:27.301Z,0.50
2018-01-29T21:09:55.397Z,0.43
2018-01-29T21:12:23.431Z,0.60
2018-01-29T21:15:06.261Z,0.50
2018-01-29T21:17:36.152Z,0.40
2018-01-29T21:20:04.298Z,0.40
2018-01-29T21:22:33.918Z,0.50
2018-01-29T21:25:02.090Z,0.60
2018-01-29T21:27:30.153Z,0.50
2018-01-29T21:29:58.212Z,0.40
2018-01-29T21:32:26.305Z,0.30
2018-01-29T21:34:54.410Z,0.30
2018-01-29T21:37:22.474Z,0.40
2018-01-29T21:39:50.558Z,0.37
2018-01-29T21:42:18.631Z,0.40
2018-01-29T21:44:46.721Z,0.40
2018-01-29T21:47:15.263Z,0.50
2018-01-29T21:49:43.369Z,0.40
2018-01-29T21:52:11.489Z,0.50
2018-01-29T21:54:39.543Z,0.60
2018-01-29T21:57:08.518Z,0.47
2018-01-29T21:59:36.675Z,0.50
2018-01-29T22:02:04.729Z,0.63
2018-01-29T22:04:32.830Z,0.50
2018-01-29T22:07:00.914Z,0.40
2018-01-29T22:09:28.981Z,0.40
2018-01-29T22:11:57.041Z,0.53
2018-01-29T22:14:40.315Z,0.50
2018-01-29T22:17:08.393Z,0.40
2018-01-29T22:19:36.481Z,0.60
2018-01-29T22:22:04.569Z,0.40
2018-01-29T22:24:32.635Z,0.50
2018-01-29T22:27:07.851Z,0.43
2018-01-29T22:29:36.258Z,0.40
2018-01-29T22:32:04.306Z,0.40
2018-01-29T22:34:32.346Z,0.40
2018-01-29T22:37:00.415Z,0.47
2018-01-29T22:39:28.494Z,0.40
2018-01-29T22:41:56.510Z,0.30
2018-01-29T22:44:24.559Z,0.30
2018-01-29T22:46:52.586Z,0.40
2018-01-29T22:49:20.678Z,0.40
2018-01-29T22:51:48.710Z,0.33
2018-01-29T22:54:16.790Z,0.40
2018-01-29T22:56:44.893Z,0.40
2018-01-29T22:59:13.072Z,0.60
2018-01-29T23:01:41.146Z,0.40
2018-01-29T23:04:09.257Z,0.40
2018-01-29T23:06:37.296Z,0.40
2018-01-29T23:09:05.340Z,0.40
2018-01-29T23:11:33.374Z,0.50
2018-01-29T23:14:13.653Z,0.30
2018-01-29T23:16:41.717Z,0.30
2018-01-29T23:19:09.832Z,0.40
2018-01-29T23:21:37.886Z,0.40
2018-01-29T23:24:06.165Z,0.50
2018-01-29T23:26:34.198Z,0.50
2018-01-29T23:29:02.268Z,0.30
2018-01-29T23:31:30.345Z,0.30
2018-01-29T23:33:58.461Z,0.33
2018-01-29T23:36:26.502Z,0.30
2018-01-29T23:38:54.537Z,0.43
2018-01-29T23:41:22.559Z,0.40
2018-01-29T23:43:50.594Z,0.40
2018-01-29T23:46:18.631Z,0.30
2018-01-29T23:48:47.025Z,0.27
2018-01-29T23:51:15.192Z,0.30
2018-01-29T23:53:43.362Z,0.30
2018-01-29T23:56:11.426Z,0.43
2018-01-29T23:58:39.458Z,0.47
